Time;durP1;ratioP1;P1;durP2;ratioP2;P2;SDS_P1;SDS_P2;PMS_P1;PMS_P2;Temp;Humidity;BMP_temperature;BMP_pressure;BME280_temperature;BME280_humidity;BME280_pressure;Samples;Min_cycle;Max_cycle;Signal;HPM_P1;HPM_P2
2021/01/04 00:02:20;;;;;;;11.85;8.77;;;1.20;94.50;;;;;;5110347;28;20599;-80
2021/01/04 00:04:57;;;;;;;12.07;8.45;;;1.20;94.50;;;;;;5110448;28;20431;-81
2021/01/04 00:07:43;;;;;;;11.65;7.75;;;1.10;94.10;;;;;;5108217;28;20910;-81
2021/01/04 00:10:30;;;;;;;12.25;8.80;;;1.10;94.00;;;;;;5110362;28;20427;-81
2021/01/04 00:12:56;;;;;;;14.52;9.27;;;1.10;94.10;;;;;;5110072;28;20445;-80
2021/01/04 00:15:44;;;;;;;12.15;8.65;;;1.10;94.30;;;;;;5110142;28;20388;-81
2021/01/04 00:18:36;;;;;;;13.73;8.77;;;1.20;94.60;;;;;;5109818;28;20377;-81
2021/01/04 00:21:05;;;;;;;12.18;8.63;;;1.20;94.40;;;;;;5109931;28;20380;-81
2021/01/04 00:24:07;;;;;;;14.27;9.00;;;1.20;94.30;;;;;;5110200;28;20527;-81
2021/01/04 00:26:49;;;;;;;12.87;8.60;;;1.20;94.30;;;;;;5109699;28;20395;-80
2021/01/04 00:29:17;;;;;;;13.75;8.40;;;1.20;94.40;;;;;;5111186;28;20419;-80
2021/01/04 00:31:49;;;;;;;12.18;8.43;;;1.20;94.00;;;;;;5112304;28;20839;-81
2021/01/04 00:34:25;;;;;;;14.43;9.13;;;1.10;94.10;;;;;;5113654;28;20385;-81
2021/01/04 00:37:21;;;;;;;15.93;9.43;;;1.20;93.90;;;;;;5111993;28;20376;-81
2021/01/04 00:39:58;;;;;;;13.35;8.73;;;1.10;94.20;;;;;;5111982;28;20414;-81
2021/01/04 00:42:30;;;;;;;14.20;8.97;;;1.20;94.30;;;;;;5113427;28;20814;-81
2021/01/04 00:45:11;;;;;;;11.88;8.55;;;1.20;94.40;;;;;;5113363;28;20841;-81
2021/01/04 00:47:55;;;;;;;12.00;8.13;;;1.10;94.00;;;;;;5112722;28;20732;-81
2021/01/04 00:50:31;;;;;;;13.63;8.73;;;1.10;94.20;;;;;;5113146;28;20415;-81
2021/01/04 00:53:07;;;;;;;12.40;8.82;;;1.20;94.30;;;;;;5113056;28;20388;-81
2021/01/04 00:55:49;;;;;;;12.88;8.40;;;1.20;93.80;;;;;;5111602;28;20400;-81
2021/01/04 00:58:23;;;;;;;12.70;8.43;;;1.20;93.90;;;;;;5111222;28;20511;-81
2021/01/04 01:00:50;;;;;;;12.90;8.63;;;1.20;93.70;;;;;;5111589;28;20392;-80
2021/01/04 01:03:37;;;;;;;13.85;8.43;;;1.20;93.70;;;;;;5112900;28;20404;-81
2021/01/04 01:06:18;;;;;;;12.93;8.95;;;1.10;93.70;;;;;;5113086;28;20430;-81
2021/01/04 01:08:45;;;;;;;13.50;8.65;;;1.20;94.20;;;;;;5111116;28;20425;-81
2021/01/04 01:11:20;;;;;;;13.63;9.20;;;1.20;94.10;;;;;;5112994;28;20793;-80
2021/01/04 01:13:54;;;;;;;15.63;9.32;;;1.10;94.20;;;;;;5112932;28;20527;-81
2021/01/04 01:16:26;;;;;;;16.02;10.18;;;1.00;94.20;;;;;;5112658;28;20398;-81
2021/01/04 01:19:21;;;;;;;17.33;10.33;;;1.00;94.30;;;;;;5112162;28;20913;-81
2021/01/04 01:21:47;;;;;;;16.90;10.50;;;1.00;94.50;;;;;;5080329;28;20388;-81
2021/01/04 01:24:14;;;;;;;15.45;10.20;;;1.00;94.70;;;;;;5112674;28;20861;-81
2021/01/04 01:27:04;;;;;;;15.90;10.65;;;1.00;94.70;;;;;;5112599;28;20418;-81
2021/01/04 01:29:57;;;;;;;17.40;10.32;;;0.90;94.70;;;;;;5112594;28;20388;-80
2021/01/04 01:32:59;;;;;;;16.35;9.95;;;0.90;95.00;;;;;;5112418;28;20383;-80
2021/01/04 01:35:30;;;;;;;16.23;9.85;;;0.90;95.00;;;;;;5112649;28;20380;-81
2021/01/04 01:38:02;;;;;;;15.70;10.68;;;0.80;94.90;;;;;;5112128;28;20429;-81
2021/01/04 01:41:04;;;;;;;17.88;10.70;;;0.80;95.00;;;;;;5112485;28;20419;-81
2021/01/04 01:43:44;;;;;;;14.65;9.95;;;0.90;94.90;;;;;;5111109;28;20915;-80
2021/01/04 01:46:38;;;;;;;17.98;10.90;;;0.90;94.70;;;;;;5112689;28;20416;-81
2021/01/04 01:49:18;;;;;;;16.15;10.73;;;0.90;94.80;;;;;;5112327;28;20464;-81
2021/01/04 01:52:02;;;;;;;17.70;10.75;;;0.90;94.90;;;;;;5111905;28;20429;-81
2021/01/04 01:54:46;;;;;;;15.73;10.00;;;0.90;94.60;;;;;;5112301;28;20721;-81
2021/01/04 01:57:17;;;;;;;18.75;10.73;;;0.90;94.70;;;;;;5110456;28;20750;-81
2021/01/04 02:00:01;;;;;;;18.00;11.18;;;1.00;94.80;;;;;;5112073;28;20381;-80
2021/01/04 02:02:40;;;;;;;17.05;10.90;;;0.90;94.80;;;;;;5112145;28;20450;-81
2021/01/04 02:05:28;;;;;;;18.67;10.60;;;0.90;94.90;;;;;;5111973;28;20376;-81
2021/01/04 02:08:01;;;;;;;16.75;11.35;;;1.00;94.70;;;;;;5111382;28;20387;-81
2021/01/04 02:10:36;;;;;;;15.20;10.90;;;1.00;94.70;;;;;;5110357;28;20480;-80
2021/01/04 02:13:23;;;;;;;16.77;10.65;;;1.00;94.80;;;;;;5111248;28;20384;-80
2021/01/04 02:15:59;;;;;;;16.88;11.05;;;1.00;94.60;;;;;;5111643;28;20432;-80
2021/01/04 02:18:33;;;;;;;15.43;10.60;;;1.00;94.70;;;;;;5110990;28;20493;-81
2021/01/04 02:21:05;;;;;;;16.45;10.45;;;1.00;94.70;;;;;;5112257;28;20516;-81
2021/01/04 02:23:36;;;;;;;14.27;9.82;;;1.00;94.50;;;;;;5111288;28;20495;-81
2021/01/04 02:26:10;;;;;;;17.27;10.57;;;1.00;94.40;;;;;;5111467;28;20439;-81
2021/01/04 02:29:02;;;;;;;16.25;10.15;;;1.00;94.80;;;;;;5110830;28;20377;-81
2021/01/04 02:31:29;;;;;;;14.68;9.50;;;1.00;94.20;;;;;;5111106;28;20432;-81
2021/01/04 02:33:55;;;;;;;16.45;9.75;;;1.10;94.50;;;;;;5109442;28;20798;-81
2021/01/04 02:36:22;;;;;;;14.82;9.43;;;1.10;94.30;;;;;;5110306;28;20376;-81
2021/01/04 02:39:09;;;;;;;16.60;10.18;;;1.00;94.20;;;;;;5109580;28;20753;-80
2021/01/04 02:41:52;;;;;;;16.67;10.50;;;1.10;94.20;;;;;;5110658;28;20861;-81
2021/01/04 02:44:20;;;;;;;15.38;9.63;;;1.10;94.10;;;;;;5110867;28;20392;-81
2021/01/04 02:47:13;;;;;;;14.85;10.02;;;1.00;94.20;;;;;;5110803;28;20417;-81
2021/01/04 02:49:50;;;;;;;18.33;11.15;;;1.00;94.50;;;;;;5072009;28;20457;-81
2021/01/04 02:52:23;;;;;;;16.95;11.30;;;0.90;94.60;;;;;;5110420;28;20412;-80
2021/01/04 02:55:02;;;;;;;15.32;10.23;;;0.90;95.00;;;;;;5110661;28;20459;-80
2021/01/04 02:57:44;;;;;;;15.88;9.40;;;0.90;94.90;;;;;;5110699;28;20429;-80
2021/01/04 03:00:14;;;;;;;15.25;9.55;;;0.90;94.80;;;;;;5110975;28;20377;-81
2021/01/04 03:02:47;;;;;;;16.65;10.13;;;0.80;94.90;;;;;;5110569;28;21014;-81
2021/01/04 03:05:17;;;;;;;14.88;9.82;;;0.60;95.30;;;;;;5111066;28;20417;-81
2021/01/04 03:07:54;;;;;;;17.05;10.15;;;0.60;95.40;;;;;;5108839;28;20887;-81
2021/01/04 03:10:29;;;;;;;15.65;9.35;;;0.70;95.30;;;;;;5110059;28;20395;-80
2021/01/04 03:13:18;;;;;;;19.03;11.30;;;0.70;95.30;;;;;;5110304;28;20879;-81
2021/01/04 03:16:01;;;;;;;18.77;10.60;;;0.70;95.20;;;;;;5110839;28;20376;-81
2021/01/04 03:18:41;;;;;;;17.30;10.45;;;0.80;95.20;;;;;;5109577;28;20478;-82
2021/01/04 03:21:08;;;;;;;21.55;11.57;;;0.80;95.00;;;;;;5110401;28;20433;-81
2021/01/04 03:23:34;;;;;;;20.50;11.02;;;0.70;95.10;;;;;;5110734;28;20433;-81
2021/01/04 03:26:10;;;;;;;17.65;11.02;;;0.80;95.20;;;;;;5110486;28;20892;-81
2021/01/04 03:28:35;;;;;;;16.58;10.27;;;0.80;95.10;;;;;;5109353;28;20767;-81
2021/01/04 03:31:02;;;;;;;17.25;10.55;;;0.80;95.10;;;;;;5109063;28;20392;-81
2021/01/04 03:33:27;;;;;;;20.40;11.93;;;0.80;95.20;;;;;;5110786;28;20385;-81
2021/01/04 03:35:53;;;;;;;18.65;11.73;;;0.70;95.30;;;;;;5109284;28;20389;-81
2021/01/04 03:38:20;;;;;;;20.77;12.00;;;0.80;95.10;;;;;;5108462;28;20388;-81
2021/01/04 03:40:46;;;;;;;20.60;12.65;;;0.80;95.30;;;;;;5109653;28;20369;-81
2021/01/04 03:43:11;;;;;;;17.23;11.03;;;0.80;95.20;;;;;;5110173;28;20476;-81
2021/01/04 03:45:37;;;;;;;19.77;12.02;;;0.80;95.00;;;;;;5110672;28;20388;-81
2021/01/04 03:48:03;;;;;;;22.13;12.38;;;0.80;95.20;;;;;;5108440;28;20393;-81
2021/01/04 03:50:29;;;;;;;19.05;11.52;;;0.80;95.30;;;;;;5110811;28;20453;-81
2021/01/04 03:52:54;;;;;;;21.10;13.13;;;0.80;95.10;;;;;;5110363;28;20414;-81
2021/01/04 03:55:20;;;;;;;23.45;12.60;;;0.80;95.10;;;;;;5110312;28;20392;-81
2021/01/04 03:57:46;;;;;;;18.45;11.82;;;0.80;95.10;;;;;;5109574;28;20387;-80
2021/01/04 04:00:14;;;;;;;18.08;11.85;;;0.80;95.40;;;;;;5110083;28;20372;-81
2021/01/04 04:02:41;;;;;;;21.40;12.85;;;0.80;95.20;;;;;;5111242;28;20410;-80
2021/01/04 04:05:10;;;;;;;19.73;11.67;;;0.90;95.10;;;;;;5114109;28;20388;-81
2021/01/04 04:07:35;;;;;;;19.73;12.32;;;0.90;95.20;;;;;;5113659;28;20372;-81
2021/01/04 04:10:03;;;;;;;20.33;12.15;;;0.80;95.20;;;;;;5114172;27;20666;-81
2021/01/04 04:12:28;;;;;;;18.55;11.60;;;0.90;95.10;;;;;;5113111;28;20861;-81
2021/01/04 04:14:54;;;;;;;20.85;12.73;;;0.90;94.60;;;;;;5113837;28;20391;-80
2021/01/04 04:17:19;;;;;;;19.20;11.68;;;0.90;94.90;;;;;;5113945;28;21057;-80
2021/01/04 04:19:49;;;;;;;17.48;11.32;;;0.90;94.80;;;;;;5114067;28;20430;-81
2021/01/04 04:22:15;;;;;;;18.13;11.05;;;0.90;94.80;;;;;;5113937;28;20738;-80
2021/01/04 04:24:43;;;;;;;18.48;11.80;;;0.90;94.70;;;;;;5113776;28;20894;-80
2021/01/04 04:27:09;;;;;;;17.90;11.60;;;0.90;94.90;;;;;;5112192;28;20478;-80
2021/01/04 04:29:37;;;;;;;18.02;11.05;;;0.90;94.70;;;;;;5113875;28;20475;-80
2021/01/04 04:32:04;;;;;;;19.15;10.98;;;0.90;94.80;;;;;;5113709;28;20384;-80
2021/01/04 04:34:29;;;;;;;16.88;11.05;;;0.90;94.80;;;;;;5113650;28;20384;-80
2021/01/04 04:36:55;;;;;;;17.00;10.17;;;0.90;94.70;;;;;;5112721;28;20403;-80
2021/01/04 04:39:20;;;;;;;18.00;11.67;;;0.90;94.80;;;;;;5113720;28;20498;-80
2021/01/04 04:41:49;;;;;;;21.70;12.33;;;0.90;94.70;;;;;;5113333;28;20376;-80
2021/01/04 04:44:37;;;;;;;17.85;10.85;;;0.90;94.70;;;;;;5113324;28;20460;-80
2021/01/04 04:47:23;;;;;;;18.13;11.00;;;0.90;94.90;;;;;;5113232;28;20384;-80
2021/01/04 04:50:06;;;;;;;16.63;10.82;;;0.90;95.00;;;;;;5113980;28;20387;-80
2021/01/04 04:52:57;;;;;;;19.02;11.43;;;0.90;94.70;;;;;;5111647;28;20400;-80
2021/01/04 04:56:00;;;;;;;19.02;11.40;;;1.00;94.60;;;;;;5113007;28;20441;-80
2021/01/04 04:58:34;;;;;;;17.75;10.90;;;1.00;94.60;;;;;;5112723;28;20384;-81
2021/01/04 05:01:35;;;;;;;17.25;11.07;;;1.00;94.70;;;;;;5112901;28;20852;-80
2021/01/04 05:04:33;;;;;;;15.93;9.85;;;1.00;94.50;;;;;;5112592;28;20407;-80
2021/01/04 05:07:08;;;;;;;15.68;9.90;;;0.90;94.50;;;;;;5087629;28;20406;-80
2021/01/04 05:09:55;;;;;;;14.95;9.82;;;1.00;94.50;;;;;;5111831;28;20420;-80
2021/01/04 05:12:36;;;;;;;18.40;10.57;;;1.00;94.50;;;;;;5112874;28;20414;-80
2021/01/04 05:15:28;;;;;;;16.88;10.07;;;1.00;94.50;;;;;;5111948;28;20381;-80
2021/01/04 05:18:15;;;;;;;15.48;9.98;;;1.00;94.50;;;;;;5108842;28;20733;-80
2021/01/04 05:21:02;;;;;;;17.73;10.82;;;1.00;94.40;;;;;;5111499;28;20445;-80
2021/01/04 05:23:46;;;;;;;16.02;10.13;;;1.00;94.50;;;;;;5112808;28;20869;-81
2021/01/04 05:26:43;;;;;;;16.05;9.55;;;1.00;94.50;;;;;;5111345;28;20756;-80
2021/01/04 05:29:54;;;;;;;18.98;10.85;;;1.00;94.20;;;;;;5112446;28;20468;-81
2021/01/04 05:32:40;;;;;;;17.38;10.57;;;1.00;94.50;;;;;;5110763;28;20752;-80
2021/01/04 05:35:09;;;;;;;20.52;11.13;;;1.00;94.80;;;;;;5112736;28;20774;-81
2021/01/04 05:37:41;;;;;;;19.90;11.30;;;1.00;94.60;;;;;;5111888;27;20422;-80
2021/01/04 05:40:26;;;;;;;16.75;10.77;;;1.00;94.50;;;;;;5112249;28;20420;-80
2021/01/04 05:43:13;;;;;;;17.90;11.47;;;0.90;94.70;;;;;;5112286;28;20408;-80
2021/01/04 05:46:00;;;;;;;16.98;10.90;;;1.00;94.80;;;;;;5112146;27;20377;-80
2021/01/04 05:48:35;;;;;;;17.55;11.07;;;0.90;94.60;;;;;;5111155;28;20403;-80
2021/01/04 05:51:24;;;;;;;16.65;10.20;;;0.90;94.50;;;;;;5111996;28;20664;-81
2021/01/04 05:53:50;;;;;;;15.43;9.98;;;1.00;94.50;;;;;;5112346;28;20860;-80
2021/01/04 05:56:22;;;;;;;19.80;11.60;;;0.90;94.60;;;;;;5110664;28;20396;-80
2021/01/04 05:58:49;;;;;;;18.98;10.82;;;0.90;94.80;;;;;;5111407;28;20513;-80
2021/01/04 06:01:27;;;;;;;15.95;10.93;;;0.90;94.60;;;;;;5112078;28;20381;-80
2021/01/04 06:04:03;;;;;;;17.05;11.38;;;0.90;94.70;;;;;;5111662;28;20407;-80
2021/01/04 06:06:30;;;;;;;15.55;10.30;;;0.90;94.70;;;;;;5111666;28;20377;-80
2021/01/04 06:09:01;;;;;;;24.25;12.00;;;0.90;94.80;;;;;;5111671;28;20467;-81
2021/01/04 06:11:27;;;;;;;20.07;11.60;;;0.90;94.70;;;;;;5112076;28;20380;-80
2021/01/04 06:13:56;;;;;;;16.00;10.07;;;0.90;95.00;;;;;;5111296;28;20384;-81
2021/01/04 06:16:26;;;;;;;18.80;11.27;;;0.90;94.90;;;;;;5111441;27;20685;-80
2021/01/04 06:18:57;;;;;;;17.90;10.53;;;0.90;95.10;;;;;;5111418;28;20974;-80
2021/01/04 06:21:30;;;;;;;20.05;11.85;;;0.90;95.10;;;;;;5111480;28;20521;-80
2021/01/04 06:24:01;;;;;;;20.17;11.95;;;0.90;95.20;;;;;;5111901;28;20608;-80
2021/01/04 06:26:27;;;;;;;18.88;10.80;;;0.90;95.20;;;;;;5110557;28;20838;-80
2021/01/04 06:29:05;;;;;;;20.55;11.02;;;0.90;94.80;;;;;;5109867;28;20394;-81
2021/01/04 06:31:46;;;;;;;18.02;11.05;;;0.90;94.80;;;;;;5111432;28;20416;-81
2021/01/04 06:34:17;;;;;;;23.88;11.23;;;0.90;94.60;;;;;;5110131;28;20734;-80
2021/01/04 06:36:47;;;;;;;20.48;12.13;;;1.00;94.70;;;;;;5109613;28;20530;-80
2021/01/04 06:39:19;;;;;;;17.13;9.73;;;1.00;94.50;;;;;;5109800;28;20388;-81
2021/01/04 06:41:45;;;;;;;15.90;9.88;;;1.00;94.40;;;;;;5111314;28;20380;-81
2021/01/04 06:44:22;;;;;;;17.75;10.77;;;1.00;94.30;;;;;;5110903;28;20895;-81
2021/01/04 06:46:50;;;;;;;18.88;10.55;;;1.00;94.40;;;;;;5110726;28;20385;-80
2021/01/04 06:49:25;;;;;;;15.38;10.00;;;1.00;94.50;;;;;;5110889;28;20391;-81
2021/01/04 06:52:40;;;;;;;15.85;9.95;;;1.00;94.40;;;;;;5111207;28;21138;-80
2021/01/04 06:55:05;;;;;;;16.42;10.02;;;1.00;94.40;;;;;;5111016;28;20392;-80
2021/01/04 06:57:59;;;;;;;19.90;11.13;;;1.00;94.10;;;;;;5110170;28;20714;-81
2021/01/04 07:00:47;;;;;;;20.20;11.35;;;1.10;94.30;;;;;;5110939;28;20387;-81
2021/01/04 07:03:30;;;;;;;21.00;12.10;;;1.00;94.40;;;;;;5078318;28;20423;-81
2021/01/04 07:05:58;;;;;;;17.98;10.75;;;1.00;94.20;;;;;;5108082;28;20467;-80
2021/01/04 07:08:39;;;;;;;16.05;9.85;;;1.10;94.10;;;;;;5106388;28;20799;-81
2021/01/04 07:11:19;;;;;;;18.40;10.52;;;1.00;93.90;;;;;;5110611;28;20431;-80
2021/01/04 07:14:18;;;;;;;17.03;10.57;;;1.10;94.10;;;;;;5110773;28;20764;-80
2021/01/04 07:17:10;;;;;;;15.45;9.68;;;1.10;94.20;;;;;;5108803;28;20876;-80
2021/01/04 07:19:50;;;;;;;16.50;10.55;;;1.10;93.80;;;;;;5110918;28;21280;-81
2021/01/04 07:22:37;;;;;;;17.50;10.45;;;1.10;94.00;;;;;;5110637;28;20382;-81
2021/01/04 07:25:15;;;;;;;18.00;11.30;;;1.10;93.60;;;;;;5110430;28;20860;-80
2021/01/04 07:27:56;;;;;;;17.88;11.05;;;1.10;94.10;;;;;;5110342;28;20377;-80
2021/01/04 07:30:25;;;;;;;16.17;10.90;;;1.10;94.00;;;;;;5110706;28;20384;-80
2021/01/04 07:33:15;;;;;;;17.45;10.10;;;1.10;93.80;;;;;;5110302;28;20767;-80
2021/01/04 07:36:14;;;;;;;18.17;10.95;;;1.10;93.90;;;;;;5110518;28;20465;-81
2021/01/04 07:39:11;;;;;;;18.03;10.73;;;1.10;94.00;;;;;;5085820;28;20481;-81
2021/01/04 07:41:48;;;;;;;16.52;10.23;;;1.10;93.90;;;;;;5114449;28;20425;-81
2021/01/04 07:44:51;;;;;;;16.88;10.50;;;1.10;93.70;;;;;;5113297;28;20453;-81
2021/01/04 07:47:43;;;;;;;16.45;10.45;;;1.10;93.80;;;;;;5113671;28;20726;-80
2021/01/04 07:50:21;;;;;;;18.30;10.60;;;1.20;93.60;;;;;;5113209;28;20541;-81
2021/01/04 07:53:03;;;;;;;17.25;11.05;;;1.20;93.60;;;;;;5114170;28;20380;-80
2021/01/04 07:56:01;;;;;;;17.77;10.57;;;1.20;93.60;;;;;;5112788;28;20736;-81
2021/01/04 07:58:58;;;;;;;15.20;9.38;;;1.20;93.70;;;;;;5113943;28;20516;-81
2021/01/04 08:01:51;;;;;;;15.43;9.95;;;1.20;93.20;;;;;;5095992;28;20423;-80
2021/01/04 08:04:44;;;;;;;17.20;10.55;;;1.20;93.40;;;;;;5112646;28;20606;-80
2021/01/04 08:07:38;;;;;;;23.08;11.75;;;1.20;93.30;;;;;;5114149;28;20737;-81
2021/01/04 08:10:04;;;;;;;19.13;11.40;;;1.20;93.60;;;;;;5112330;28;20442;-81
2021/01/04 08:12:47;;;;;;;15.87;10.10;;;1.20;94.00;;;;;;5114074;28;20415;-81
2021/01/04 08:15:34;;;;;;;15.43;10.10;;;1.20;93.90;;;;;;5113917;28;20918;-81
2021/01/04 08:18:09;;;;;;;17.73;10.93;;;1.20;93.80;;;;;;5113478;28;20412;-81
2021/01/04 08:20:45;;;;;;;17.80;10.35;;;1.20;94.00;;;;;;5114227;28;21022;-80
2021/01/04 08:23:39;;;;;;;18.92;10.93;;;1.20;93.60;;;;;;5113984;28;20491;-81
2021/01/04 08:26:14;;;;;;;16.15;11.10;;;1.20;93.60;;;;;;5114388;28;20387;-81
2021/01/04 08:29:03;;;;;;;18.88;11.73;;;1.20;93.80;;;;;;5113526;28;20381;-81
2021/01/04 08:31:37;;;;;;;20.92;11.90;;;1.20;93.70;;;;;;5113618;27;20416;-81
2021/01/04 08:34:06;;;;;;;22.90;13.73;;;1.20;93.80;;;;;;5114010;28;20388;-85
2021/01/04 08:36:34;;;;;;;20.55;11.65;;;1.10;93.70;;;;;;5111124;28;20377;-80
2021/01/04 08:39:13;;;;;;;21.93;12.63;;;1.10;93.80;;;;;;5111850;28;20474;-81
2021/01/04 08:41:41;;;;;;;21.30;12.07;;;1.20;94.00;;;;;;5113706;28;20465;-80
2021/01/04 08:44:16;;;;;;;20.00;11.70;;;1.20;94.10;;;;;;5112279;28;20432;-81
2021/01/04 08:46:43;;;;;;;19.70;11.40;;;1.10;93.90;;;;;;5112764;28;20872;-81
2021/01/04 08:49:23;;;;;;;18.25;11.20;;;1.20;93.90;;;;;;5112209;28;20380;-83
2021/01/04 08:51:52;;;;;;;19.75;11.25;;;1.10;94.00;;;;;;5093195;28;20465;-81
2021/01/04 08:54:30;;;;;;;20.80;12.50;;;1.10;94.10;;;;;;5092890;28;20751;-81
2021/01/04 08:57:20;;;;;;;19.98;11.82;;;1.20;94.00;;;;;;5092697;28;20424;-81
2021/01/04 08:59:59;;;;;;;20.25;12.02;;;1.20;94.10;;;;;;5125451;27;20393;-80
2021/01/04 09:02:41;;;;;;;19.60;11.52;;;1.20;94.00;;;;;;5091548;28;20405;-81
2021/01/04 09:05:10;;;;;;;17.90;10.43;;;1.30;94.00;;;;;;5092515;28;20386;-81
2021/01/04 09:07:50;;;;;;;17.13;10.50;;;1.30;93.80;;;;;;5093496;28;20388;-81
2021/01/04 09:10:42;;;;;;;17.25;10.38;;;1.20;93.80;;;;;;5112878;28;20375;-81
2021/01/04 09:13:32;;;;;;;16.98;10.18;;;1.20;93.60;;;;;;5112623;28;20424;-81
2021/01/04 09:16:18;;;;;;;19.15;9.38;;;1.20;93.70;;;;;;5113074;28;20384;-81
2021/01/04 09:19:08;;;;;;;15.60;9.07;;;1.20;93.70;;;;;;5111256;28;20392;-81
2021/01/04 09:21:41;;;;;;;13.80;8.77;;;1.20;93.70;;;;;;5112572;28;20376;-81
2021/01/04 09:24:06;;;;;;;16.33;9.18;;;1.20;93.90;;;;;;5112649;28;20450;-81
2021/01/04 09:26:38;;;;;;;14.90;9.10;;;1.20;93.40;;;;;;5112390;28;20389;-80
2021/01/04 09:29:16;;;;;;;18.73;9.70;;;1.20;93.70;;;;;;5112023;28;20392;-80
2021/01/04 09:32:00;;;;;;;12.43;8.15;;;1.20;93.80;;;;;;5111978;28;20387;-78
2021/01/04 09:34:29;;;;;;;12.98;8.38;;;1.20;93.30;;;;;;5110950;28;20433;-79
2021/01/04 09:37:04;;;;;;;13.02;8.82;;;1.20;93.60;;;;;;5112144;28;20373;-78
2021/01/04 09:39:36;;;;;;;13.50;8.80;;;1.20;93.30;;;;;;5112424;28;20917;-79
2021/01/04 09:42:05;;;;;;;14.18;8.82;;;1.30;93.40;;;;;;5112461;28;20431;-78
2021/01/04 09:44:31;;;;;;;15.07;8.97;;;1.30;93.40;;;;;;5112138;28;20518;-79
2021/01/04 09:47:00;;;;;;;11.43;7.80;;;1.20;93.30;;;;;;5110363;28;20431;-78
2021/01/04 09:49:46;;;;;;;12.73;8.18;;;1.30;93.20;;;;;;5111960;28;20376;-78
2021/01/04 09:52:24;;;;;;;12.80;7.88;;;1.30;93.40;;;;;;5112285;28;20379;-79
2021/01/04 09:55:03;;;;;;;13.10;7.75;;;1.40;93.30;;;;;;5111897;28;20376;-78
2021/01/04 09:57:34;;;;;;;13.30;8.03;;;1.30;93.10;;;;;;5111388;28;20488;-78
2021/01/04 10:00:00;;;;;;;13.32;8.13;;;1.40;93.30;;;;;;5112017;28;20369;-78
2021/01/04 10:02:34;;;;;;;13.33;8.53;;;1.30;93.20;;;;;;5111700;28;20876;-79
2021/01/04 10:05:12;;;;;;;15.50;8.90;;;1.40;93.40;;;;;;5110519;28;20415;-78
2021/01/04 10:07:40;;;;;;;13.77;7.97;;;1.40;93.30;;;;;;5109351;28;20443;-79
2021/01/04 10:10:18;;;;;;;13.25;8.02;;;1.40;93.50;;;;;;5111752;28;20376;-79
2021/01/04 10:12:43;;;;;;;13.70;8.23;;;1.40;93.50;;;;;;5111676;28;20385;-79
2021/01/04 10:15:29;;;;;;;23.23;12.10;;;1.40;93.30;;;;;;5110386;28;20465;-78
2021/01/04 10:18:18;;;;;;;15.25;8.35;;;1.40;93.10;;;;;;5111338;28;20380;-78
2021/01/04 10:20:49;;;;;;;12.43;7.97;;;1.40;93.50;;;;;;5110931;27;20726;-79
2021/01/04 10:23:37;;;;;;;14.55;8.52;;;1.40;93.30;;;;;;5108978;28;20419;-78
2021/01/04 10:26:07;;;;;;;12.32;7.47;;;1.40;93.50;;;;;;5089836;28;20389;-79
2021/01/04 10:28:35;;;;;;;13.23;8.00;;;1.40;93.30;;;;;;5090363;28;20399;-79
2021/01/04 10:31:10;;;;;;;12.48;7.68;;;1.40;93.20;;;;;;5088291;28;20382;-78
2021/01/04 10:33:38;;;;;;;14.15;8.55;;;1.40;93.30;;;;;;5090230;28;20386;-79
2021/01/04 10:36:15;;;;;;;13.18;7.85;;;1.30;93.40;;;;;;5091119;28;20382;-78
2021/01/04 10:38:45;;;;;;;14.77;8.60;;;1.30;93.40;;;;;;5089117;28;20386;-78
2021/01/04 10:41:15;;;;;;;16.48;8.80;;;1.30;93.70;;;;;;5090904;28;20386;-79
2021/01/04 10:43:41;;;;;;;17.63;9.68;;;1.20;93.80;;;;;;5090665;28;20402;-79
2021/01/04 10:46:26;;;;;;;18.30;9.68;;;1.20;93.80;;;;;;5089404;28;20448;-78
2021/01/04 10:49:01;;;;;;;20.73;11.80;;;1.20;93.80;;;;;;5094962;28;20391;-78
2021/01/04 10:51:28;;;;;;;19.25;10.68;;;1.30;94.10;;;;;;5108163;28;20379;-79
2021/01/04 10:53:53;;;;;;;16.80;10.18;;;1.40;94.20;;;;;;5109282;28;20860;-80
2021/01/04 10:56:19;;;;;;;21.10;10.80;;;1.40;93.70;;;;;;5111000;28;20407;-79
2021/01/04 10:58:59;;;;;;;17.60;10.87;;;1.40;93.60;;;;;;5110702;28;20376;-79
2021/01/04 11:01:32;;;;;;;18.75;9.40;;;1.40;93.70;;;;;;5110700;28;20841;-79
2021/01/04 11:04:11;;;;;;;19.00;9.00;;;1.40;93.20;;;;;;5111021;28;20749;-79
2021/01/04 11:06:39;;;;;;;15.37;9.03;;;1.40;93.50;;;;;;5109054;28;20975;-79
2021/01/04 11:09:19;;;;;;;25.80;12.65;;;1.50;93.30;;;;;;5108049;28;21418;-78
2021/01/04 11:11:51;;;;;;;21.38;10.13;;;1.50;93.20;;;;;;5108217;28;20891;-79
2021/01/04 11:14:22;;;;;;;16.27;9.38;;;1.60;92.90;;;;;;5108927;28;20411;-80
2021/01/04 11:16:50;;;;;;;16.70;8.88;;;1.60;92.70;;;;;;5110209;28;20373;-79
2021/01/04 11:19:35;;;;;;;16.95;9.90;;;1.60;93.00;;;;;;5108778;28;20453;-79
2021/01/04 11:22:09;;;;;;;13.57;8.07;;;1.70;93.10;;;;;;5110522;28;20485;-79
2021/01/04 11:24:36;;;;;;;15.63;9.05;;;1.70;92.70;;;;;;5109248;28;20393;-79
2021/01/04 11:27:01;;;;;;;18.57;9.50;;;1.60;92.60;;;;;;5107705;28;20388;-79
2021/01/04 11:29:27;;;;;;;15.97;8.33;;;1.70;93.10;;;;;;5108748;28;20467;-78
2021/01/04 11:31:52;;;;;;;16.80;9.87;;;1.70;92.40;;;;;;5110517;28;20449;-79
2021/01/04 11:34:18;;;;;;;18.07;9.60;;;1.70;92.70;;;;;;5109000;28;20411;-79
2021/01/04 11:36:43;;;;;;;19.43;9.60;;;1.70;92.70;;;;;;5109242;28;20408;-78
2021/01/04 11:39:09;;;;;;;21.30;9.93;;;1.80;92.60;;;;;;5107455;28;20384;-79
2021/01/04 11:41:34;;;;;;;19.35;10.70;;;1.90;92.30;;;;;;5108098;28;20380;-79
2021/01/04 11:44:00;;;;;;;18.98;10.48;;;1.80;92.20;;;;;;5109466;28;20400;-79
2021/01/04 11:46:25;;;;;;;18.30;10.35;;;1.80;92.50;;;;;;5109565;28;20388;-79
2021/01/04 11:48:51;;;;;;;18.50;11.07;;;1.90;92.20;;;;;;5109700;28;20384;-79
2021/01/04 11:51:20;;;;;;;18.02;10.40;;;1.80;92.30;;;;;;5110230;28;20779;-79
2021/01/04 11:53:50;;;;;;;19.27;10.70;;;1.80;92.40;;;;;;5109592;28;20389;-79
2021/01/04 11:56:17;;;;;;;18.40;11.15;;;1.90;91.90;;;;;;5107942;28;20786;-79
2021/01/04 11:58:43;;;;;;;17.15;10.30;;;1.90;92.50;;;;;;5109836;28;20424;-79
2021/01/04 12:01:09;;;;;;;21.65;11.07;;;1.90;91.60;;;;;;5110500;28;20467;-79
2021/01/04 12:03:35;;;;;;;16.87;9.97;;;1.90;92.20;;;;;;5110171;28;20952;-79
2021/01/04 12:06:01;;;;;;;21.67;11.50;;;1.90;91.00;;;;;;5110537;28;20857;-79
2021/01/04 12:08:26;;;;;;;20.00;10.32;;;1.90;91.90;;;;;;5109718;28;20376;-79
2021/01/04 12:10:52;;;;;;;18.57;10.23;;;1.90;90.70;;;;;;5110483;28;20702;-79
2021/01/04 12:13:18;;;;;;;18.83;11.13;;;1.90;91.10;;;;;;5108629;28;20382;-79
2021/01/04 12:15:43;;;;;;;16.83;10.50;;;1.90;91.30;;;;;;5110037;28;20771;-79
2021/01/04 12:18:09;;;;;;;19.67;11.33;;;1.90;91.60;;;;;;5108231;28;20438;-78
2021/01/04 12:20:34;;;;;;;18.38;10.70;;;2.00;91.30;;;;;;5110339;28;20372;-79
2021/01/04 12:23:00;;;;;;;17.33;10.50;;;2.00;91.50;;;;;;5110786;28;20400;-79
2021/01/04 12:25:25;;;;;;;19.38;11.85;;;2.00;91.40;;;;;;5113789;28;20373;-79
2021/01/04 12:27:51;;;;;;;22.70;13.43;;;2.00;91.10;;;;;;5113579;28;20376;-79
2021/01/04 12:30:18;;;;;;;23.17;13.63;;;1.90;91.50;;;;;;5113733;28;20464;-81
2021/01/04 12:32:44;;;;;;;23.35;13.82;;;1.90;92.00;;;;;;5113959;28;20388;-79
2021/01/04 12:35:10;;;;;;;27.63;14.63;;;1.90;92.00;;;;;;5113725;28;20852;-79
2021/01/04 12:37:37;;;;;;;26.70;15.03;;;1.90;92.10;;;;;;5112199;28;20391;-79
2021/01/04 12:40:09;;;;;;;21.77;12.85;;;1.90;92.40;;;;;;5113294;28;20894;-78
2021/01/04 12:42:35;;;;;;;23.58;13.43;;;1.80;92.20;;;;;;5114059;27;20400;-78
2021/01/04 12:45:01;;;;;;;25.73;14.43;;;1.80;92.20;;;;;;5113226;28;20415;-79
2021/01/04 12:47:26;;;;;;;27.92;16.00;;;1.80;92.30;;;;;;5113474;28;20376;-79
2021/01/04 12:49:52;;;;;;;23.13;14.17;;;1.90;92.20;;;;;;5113426;28;20482;-83
2021/01/04 12:52:18;;;;;;;21.30;11.57;;;1.90;92.30;;;;;;5111797;28;20825;-79
2021/01/04 12:54:44;;;;;;;22.50;12.23;;;1.80;91.80;;;;;;5113323;28;20368;-79
2021/01/04 12:57:10;;;;;;;22.33;12.75;;;1.90;91.90;;;;;;5111238;28;20384;-79
2021/01/04 12:59:40;;;;;;;22.80;12.70;;;1.90;91.90;;;;;;5113360;28;20376;-81
2021/01/04 13:02:08;;;;;;;20.23;11.70;;;1.90;92.00;;;;;;5113181;28;20384;-81
2021/01/04 13:04:38;;;;;;;21.42;11.82;;;1.90;91.90;;;;;;5112571;27;20415;-81
2021/01/04 13:07:04;;;;;;;19.77;12.60;;;1.90;91.60;;;;;;5111955;28;20838;-81
2021/01/04 13:09:30;;;;;;;21.23;12.40;;;1.90;91.90;;;;;;5112511;28;20582;-81
2021/01/04 13:11:55;;;;;;;20.63;11.55;;;1.90;91.80;;;;;;5110794;28;20741;-80
2021/01/04 13:14:22;;;;;;;19.77;12.07;;;1.90;91.60;;;;;;5112252;28;20464;-84
2021/01/04 13:16:48;;;;;;;22.52;11.85;;;1.90;91.70;;;;;;5111845;28;20373;-80
2021/01/04 13:19:15;;;;;;;18.90;11.38;;;1.90;91.60;;;;;;5112252;27;20891;-81
2021/01/04 13:21:41;;;;;;;19.80;10.95;;;1.90;91.10;;;;;;5112087;28;20369;-81
2021/01/04 13:24:10;;;;;;;20.90;11.83;;;1.90;90.90;;;;;;5110214;28;20753;-81